sensor_id;sensor_type;location;lat;lon;timestamp;temperature;humidity
37530;DHT22;23374;52.758;6.872;2024-01-15T00:00:04;1.80;99.90
37530;DHT22;23374;52.758;6.872;2024-01-15T00:02:24;1.80;99.90
37530;DHT22;23374;52.758;6.872;2024-01-15T00:04:45;1.80;34.60
37530;DHT22;23374;52.758;6.872;2024-01-15T00:07:06;1.90;1.00
37530;DHT22;23374;52.758;6.872;2024-01-15T00:09:27;1.90;1.00
37530;DHT22;23374;52.758;6.872;2024-01-15T00:11:47;1.90;1.00
37530;DHT22;23374;52.758;6.872;2024-01-15T00:14:08;1.90;1.00
37530;DHT22;23374;52.758;6.872;2024-01-15T00:16:28;1.90;1.00
37530;DHT22;23374;52.758;6.872;2024-01-15T00:18:49;1.90;99.90
37530;DHT22;23374;52.758;6.872;2024-01-15T00:21:09;1.90;99.90
37530;DHT22;23374;52.758;6.872;2024-01-15T00:23:30;1.90;99.90
37530;DHT22;23374;52.758;6.872;2024-01-15T00:25:51;1.90;99.90
37530;DHT22;23374;52.758;6.872;2024-01-15T00:28:11;1.90;99.90
37530;DHT22;23374;52.758;6.872;2024-01-15T00:30:32;1.90;99.90
37530;DHT22;23374;52.758;6.872;2024-01-15T00:32:52;1.90;99.90
37530;DHT22;23374;52.758;6.872;2024-01-15T00:35:12;2.00;99.90
37530;DHT22;23374;52.758;6.872;2024-01-15T00:37:33;2.00;99.90
37530;DHT22;23374;52.758;6.872;2024-01-15T00:39:53;2.00;99.90
37530;DHT22;23374;52.758;6.872;2024-01-15T00:42:13;2.00;99.90
37530;DHT22;23374;52.758;6.872;2024-01-15T00:44:33;2.00;1.00
37530;DHT22;23374;52.758;6.872;2024-01-15T00:46:53;2.00;1.00
37530;DHT22;23374;52.758;6.872;2024-01-15T00:49:14;2.00;1.00
37530;DHT22;23374;52.758;6.872;2024-01-15T00:51:34;2.10;1.00
37530;DHT22;23374;52.758;6.872;2024-01-15T00:53:55;2.10;1.00
37530;DHT22;23374;52.758;6.872;2024-01-15T00:56:15;2.10;99.90
37530;DHT22;23374;52.758;6.872;2024-01-15T00:58:35;2.10;99.90
37530;DHT22;23374;52.758;6.872;2024-01-15T01:00:56;2.10;99.90
37530;DHT22;23374;52.758;6.872;2024-01-15T01:03:16;2.10;99.90
37530;DHT22;23374;52.758;6.872;2024-01-15T01:05:36;2.00;99.90
37530;DHT22;23374;52.758;6.872;2024-01-15T01:07:57;2.00;99.90
37530;DHT22;23374;52.758;6.872;2024-01-15T01:10:17;2.00;99.90
37530;DHT22;23374;52.758;6.872;2024-01-15T01:12:38;2.00;99.90
37530;DHT22;23374;52.758;6.872;2024-01-15T01:14:58;2.00;1.00
37530;DHT22;23374;52.758;6.872;2024-01-15T01:17:18;2.00;1.00
37530;DHT22;23374;52.758;6.872;2024-01-15T01:19:39;2.00;1.00
37530;DHT22;23374;52.758;6.872;2024-01-15T01:22:00;2.00;1.00
37530;DHT22;23374;52.758;6.872;2024-01-15T01:24:20;2.10;1.00
37530;DHT22;23374;52.758;6.872;2024-01-15T01:26:40;2.10;1.00
37530;DHT22;23374;52.758;6.872;2024-01-15T01:29:01;2.10;1.00
37530;DHT22;23374;52.758;6.872;2024-01-15T01:31:21;2.20;1.00
37530;DHT22;23374;52.758;6.872;2024-01-15T01:33:41;2.20;1.00
37530;DHT22;23374;52.758;6.872;2024-01-15T01:36:08;2.20;1.00
37530;DHT22;23374;52.758;6.872;2024-01-15T01:38:29;2.20;1.00
37530;DHT22;23374;52.758;6.872;2024-01-15T01:40:49;2.10;6.90
37530;DHT22;23374;52.758;6.872;2024-01-15T01:43:10;2.10;99.90
37530;DHT22;23374;52.758;6.872;2024-01-15T01:45:30;2.00;1.00
37530;DHT22;23374;52.758;6.872;2024-01-15T01:47:50;1.90;1.00
37530;DHT22;23374;52.758;6.872;2024-01-15T01:50:11;1.90;1.00
37530;DHT22;23374;52.758;6.872;2024-01-15T01:52:33;1.90;1.00
37530;DHT22;23374;52.758;6.872;2024-01-15T01:54:54;1.90;59.10
37530;DHT22;23374;52.758;6.872;2024-01-15T01:57:15;1.80;99.90
37530;DHT22;23374;52.758;6.872;2024-01-15T01:59:37;1.80;99.90
37530;DHT22;23374;52.758;6.872;2024-01-15T02:01:57;1.80;99.90
37530;DHT22;23374;52.758;6.872;2024-01-15T02:04:19;1.80;1.00
37530;DHT22;23374;52.758;6.872;2024-01-15T02:06:39;1.80;1.00
37530;DHT22;23374;52.758;6.872;2024-01-15T02:08:59;1.80;1.00
37530;DHT22;23374;52.758;6.872;2024-01-15T02:11:20;1.80;1.00
37530;DHT22;23374;52.758;6.872;2024-01-15T02:13:41;1.80;1.00
37530;DHT22;23374;52.758;6.872;2024-01-15T02:16:01;1.80;1.00
37530;DHT22;23374;52.758;6.872;2024-01-15T02:18:22;1.80;1.00
37530;DHT22;23374;52.758;6.872;2024-01-15T02:20:43;1.80;1.00
37530;DHT22;23374;52.758;6.872;2024-01-15T02:23:12;1.80;1.00
37530;DHT22;23374;52.758;6.872;2024-01-15T02:25:33;1.70;1.00
37530;DHT22;23374;52.758;6.872;2024-01-15T02:27:54;1.70;11.90
37530;DHT22;23374;52.758;6.872;2024-01-15T02:30:15;1.70;50.90
37530;DHT22;23374;52.758;6.872;2024-01-15T02:32:36;1.70;67.90
37530;DHT22;23374;52.758;6.872;2024-01-15T02:34:56;1.70;97.60
37530;DHT22;23374;52.758;6.872;2024-01-15T02:37:17;1.70;96.70
37530;DHT22;23374;52.758;6.872;2024-01-15T02:39:37;1.70;99.90
37530;DHT22;23374;52.758;6.872;2024-01-15T02:41:57;1.70;91.20
37530;DHT22;23374;52.758;6.872;2024-01-15T02:44:17;1.70;99.90
37530;DHT22;23374;52.758;6.872;2024-01-15T02:46:38;1.70;99.90
37530;DHT22;23374;52.758;6.872;2024-01-15T02:48:58;1.70;99.90
37530;DHT22;23374;52.758;6.872;2024-01-15T02:51:18;1.70;99.90
37530;DHT22;23374;52.758;6.872;2024-01-15T02:53:39;1.70;99.90
37530;DHT22;23374;52.758;6.872;2024-01-15T02:55:59;1.70;99.90
37530;DHT22;23374;52.758;6.872;2024-01-15T02:58:20;1.80;99.90
37530;DHT22;23374;52.758;6.872;2024-01-15T03:00:41;1.70;99.90
37530;DHT22;23374;52.758;6.872;2024-01-15T03:03:01;1.80;99.90
37530;DHT22;23374;52.758;6.872;2024-01-15T03:05:22;1.80;99.90
37530;DHT22;23374;52.758;6.872;2024-01-15T03:07:43;1.80;99.90
37530;DHT22;23374;52.758;6.872;2024-01-15T03:10:06;1.80;99.90
37530;DHT22;23374;52.758;6.872;2024-01-15T03:12:26;1.80;99.90
37530;DHT22;23374;52.758;6.872;2024-01-15T03:14:47;1.80;51.50
37530;DHT22;23374;52.758;6.872;2024-01-15T03:17:07;1.80;1.00
37530;DHT22;23374;52.758;6.872;2024-01-15T03:19:30;1.90;1.00
37530;DHT22;23374;52.758;6.872;2024-01-15T03:21:50;1.90;1.00
37530;DHT22;23374;52.758;6.872;2024-01-15T03:24:10;1.90;1.00
37530;DHT22;23374;52.758;6.872;2024-01-15T03:26:31;1.90;1.00
37530;DHT22;23374;52.758;6.872;2024-01-15T03:28:51;1.90;1.00
37530;DHT22;23374;52.758;6.872;2024-01-15T03:31:12;2.00;1.00
37530;DHT22;23374;52.758;6.872;2024-01-15T03:33:32;2.00;1.00
37530;DHT22;23374;52.758;6.872;2024-01-15T03:35:52;2.00;1.00
37530;DHT22;23374;52.758;6.872;2024-01-15T03:38:13;2.00;1.00
37530;DHT22;23374;52.758;6.872;2024-01-15T03:40:33;2.00;1.00
37530;DHT22;23374;52.758;6.872;2024-01-15T03:42:54;2.00;1.00
37530;DHT22;23374;52.758;6.872;2024-01-15T03:45:14;1.90;1.00
37530;DHT22;23374;52.758;6.872;2024-01-15T03:47:34;1.90;1.00
37530;DHT22;23374;52.758;6.872;2024-01-15T03:49:55;1.90;1.00
37530;DHT22;23374;52.758;6.872;2024-01-15T03:52:15;1.90;1.00
37530;DHT22;23374;52.758;6.872;2024-01-15T03:54:35;1.90;99.90
37530;DHT22;23374;52.758;6.872;2024-01-15T03:56:55;1.90;99.90
37530;DHT22;23374;52.758;6.872;2024-01-15T03:59:16;1.90;1.00
37530;DHT22;23374;52.758;6.872;2024-01-15T04:01:36;1.90;99.90
37530;DHT22;23374;52.758;6.872;2024-01-15T04:03:57;1.90;1.00
37530;DHT22;23374;52.758;6.872;2024-01-15T04:06:17;1.90;1.00
37530;DHT22;23374;52.758;6.872;2024-01-15T04:08:37;1.90;1.00
37530;DHT22;23374;52.758;6.872;2024-01-15T04:10:58;1.90;1.00
37530;DHT22;23374;52.758;6.872;2024-01-15T04:13:19;2.00;1.00
37530;DHT22;23374;52.758;6.872;2024-01-15T04:15:39;2.00;1.00
37530;DHT22;23374;52.758;6.872;2024-01-15T04:18:01;2.00;1.00
37530;DHT22;23374;52.758;6.872;2024-01-15T04:20:22;2.00;1.00
37530;DHT22;23374;52.758;6.872;2024-01-15T04:22:44;2.00;99.90
37530;DHT22;23374;52.758;6.872;2024-01-15T04:25:05;2.00;99.90
37530;DHT22;23374;52.758;6.872;2024-01-15T04:27:26;2.00;99.90
37530;DHT22;23374;52.758;6.872;2024-01-15T04:29:47;2.00;99.90
37530;DHT22;23374;52.758;6.872;2024-01-15T04:32:07;2.00;99.90
37530;DHT22;23374;52.758;6.872;2024-01-15T04:34:28;2.00;99.90
37530;DHT22;23374;52.758;6.872;2024-01-15T04:36:48;2.00;99.90
37530;DHT22;23374;52.758;6.872;2024-01-15T04:39:08;2.00;99.90
37530;DHT22;23374;52.758;6.872;2024-01-15T04:41:29;2.00;99.90
37530;DHT22;23374;52.758;6.872;2024-01-15T04:43:49;2.00;1.00
37530;DHT22;23374;52.758;6.872;2024-01-15T04:46:10;2.00;1.00
37530;DHT22;23374;52.758;6.872;2024-01-15T04:48:30;1.90;1.00
37530;DHT22;23374;52.758;6.872;2024-01-15T04:50:50;1.90;1.00
37530;DHT22;23374;52.758;6.872;2024-01-15T04:53:11;1.90;1.00
37530;DHT22;23374;52.758;6.872;2024-01-15T04:55:31;1.90;1.00
37530;DHT22;23374;52.758;6.872;2024-01-15T04:57:51;1.90;1.00
37530;DHT22;23374;52.758;6.872;2024-01-15T05:00:12;1.90;1.00
37530;DHT22;23374;52.758;6.872;2024-01-15T05:02:34;1.90;1.00
37530;DHT22;23374;52.758;6.872;2024-01-15T05:04:54;1.90;1.00
37530;DHT22;23374;52.758;6.872;2024-01-15T05:07:14;2.00;1.00
37530;DHT22;23374;52.758;6.872;2024-01-15T05:09:35;2.00;99.90
37530;DHT22;23374;52.758;6.872;2024-01-15T05:11:55;2.00;99.90
37530;DHT22;23374;52.758;6.872;2024-01-15T05:14:15;2.00;99.90
37530;DHT22;23374;52.758;6.872;2024-01-15T05:16:39;2.10;99.90
37530;DHT22;23374;52.758;6.872;2024-01-15T05:19:00;2.10;90.90
37530;DHT22;23374;52.758;6.872;2024-01-15T05:21:20;2.10;1.00
37530;DHT22;23374;52.758;6.872;2024-01-15T05:23:41;2.10;1.00
37530;DHT22;23374;52.758;6.872;2024-01-15T05:26:01;2.10;1.00
37530;DHT22;23374;52.758;6.872;2024-01-15T05:28:22;2.10;1.00
37530;DHT22;23374;52.758;6.872;2024-01-15T05:30:42;2.00;1.00
37530;DHT22;23374;52.758;6.872;2024-01-15T05:33:03;2.10;1.00
37530;DHT22;23374;52.758;6.872;2024-01-15T05:35:23;2.00;1.00
37530;DHT22;23374;52.758;6.872;2024-01-15T05:37:45;2.00;1.00
37530;DHT22;23374;52.758;6.872;2024-01-15T05:40:06;2.00;1.00
37530;DHT22;23374;52.758;6.872;2024-01-15T05:42:27;1.90;1.00
37530;DHT22;23374;52.758;6.872;2024-01-15T05:44:50;1.90;1.00
37530;DHT22;23374;52.758;6.872;2024-01-15T05:47:10;1.90;1.00
37530;DHT22;23374;52.758;6.872;2024-01-15T05:49:31;1.90;4.40
37530;DHT22;23374;52.758;6.872;2024-01-15T05:51:51;1.90;27.50
37530;DHT22;23374;52.758;6.872;2024-01-15T05:54:11;1.90;69.00
37530;DHT22;23374;52.758;6.872;2024-01-15T05:56:32;1.80;99.90
37530;DHT22;23374;52.758;6.872;2024-01-15T05:58:52;1.80;99.90
37530;DHT22;23374;52.758;6.872;2024-01-15T06:01:12;1.80;99.90
37530;DHT22;23374;52.758;6.872;2024-01-15T06:03:33;1.80;99.90
37530;DHT22;23374;52.758;6.872;2024-01-15T06:05:53;1.70;99.90
37530;DHT22;23374;52.758;6.872;2024-01-15T06:08:13;1.70;99.90
37530;DHT22;23374;52.758;6.872;2024-01-15T06:10:34;1.70;1.00
37530;DHT22;23374;52.758;6.872;2024-01-15T06:12:56;1.70;1.00
37530;DHT22;23374;52.758;6.872;2024-01-15T06:15:16;1.60;1.00
37530;DHT22;23374;52.758;6.872;2024-01-15T06:17:37;1.60;1.00
37530;DHT22;23374;52.758;6.872;2024-01-15T06:19:58;1.60;1.00
37530;DHT22;23374;52.758;6.872;2024-01-15T06:22:18;1.60;1.00
37530;DHT22;23374;52.758;6.872;2024-01-15T06:24:38;1.50;1.00
37530;DHT22;23374;52.758;6.872;2024-01-15T06:26:58;1.50;1.00
37530;DHT22;23374;52.758;6.872;2024-01-15T06:29:18;1.50;98.60
37530;DHT22;23374;52.758;6.872;2024-01-15T06:31:39;1.50;99.90
37530;DHT22;23374;52.758;6.872;2024-01-15T06:33:59;1.50;99.90
37530;DHT22;23374;52.758;6.872;2024-01-15T06:36:19;1.50;99.90
37530;DHT22;23374;52.758;6.872;2024-01-15T06:38:40;1.50;99.90
37530;DHT22;23374;52.758;6.872;2024-01-15T06:41:00;1.40;99.90
37530;DHT22;23374;52.758;6.872;2024-01-15T06:43:21;1.40;99.90
37530;DHT22;23374;52.758;6.872;2024-01-15T06:45:42;1.40;99.90
37530;DHT22;23374;52.758;6.872;2024-01-15T06:48:02;1.40;99.90
37530;DHT22;23374;52.758;6.872;2024-01-15T06:50:24;1.40;1.00
37530;DHT22;23374;52.758;6.872;2024-01-15T06:52:44;1.40;1.00
37530;DHT22;23374;52.758;6.872;2024-01-15T06:55:05;1.50;1.00
37530;DHT22;23374;52.758;6.872;2024-01-15T06:57:26;1.40;1.00
37530;DHT22;23374;52.758;6.872;2024-01-15T06:59:46;1.50;1.00
37530;DHT22;23374;52.758;6.872;2024-01-15T07:02:07;1.50;99.90
37530;DHT22;23374;52.758;6.872;2024-01-15T07:04:27;1.50;99.90
37530;DHT22;23374;52.758;6.872;2024-01-15T07:06:47;1.40;99.90
37530;DHT22;23374;52.758;6.872;2024-01-15T07:09:08;1.40;99.90
37530;DHT22;23374;52.758;6.872;2024-01-15T07:11:29;1.40;99.90
37530;DHT22;23374;52.758;6.872;2024-01-15T07:13:49;1.40;99.90
37530;DHT22;23374;52.758;6.872;2024-01-15T07:16:09;1.40;99.90
37530;DHT22;23374;52.758;6.872;2024-01-15T07:18:29;1.40;99.90
37530;DHT22;23374;52.758;6.872;2024-01-15T07:20:50;1.40;99.90
37530;DHT22;23374;52.758;6.872;2024-01-15T07:23:11;1.40;99.90
37530;DHT22;23374;52.758;6.872;2024-01-15T07:25:32;1.40;99.90
37530;DHT22;23374;52.758;6.872;2024-01-15T07:27:52;1.40;99.90
37530;DHT22;23374;52.758;6.872;2024-01-15T07:30:14;1.50;99.90
37530;DHT22;23374;52.758;6.872;2024-01-15T07:32:34;1.50;99.90
37530;DHT22;23374;52.758;6.872;2024-01-15T07:34:55;1.50;99.90
37530;DHT22;23374;52.758;6.872;2024-01-15T07:37:15;1.50;99.90
37530;DHT22;23374;52.758;6.872;2024-01-15T07:39:36;1.50;99.90
37530;DHT22;23374;52.758;6.872;2024-01-15T07:41:56;1.60;99.90
37530;DHT22;23374;52.758;6.872;2024-01-15T07:44:17;1.60;57.80
37530;DHT22;23374;52.758;6.872;2024-01-15T07:46:37;1.50;1.00
37530;DHT22;23374;52.758;6.872;2024-01-15T07:48:57;1.50;1.00
37530;DHT22;23374;52.758;6.872;2024-01-15T07:51:17;1.50;11.80
37530;DHT22;23374;52.758;6.872;2024-01-15T07:53:38;1.50;6.40
37530;DHT22;23374;52.758;6.872;2024-01-15T07:55:58;1.50;1.00
37530;DHT22;23374;52.758;6.872;2024-01-15T07:58:18;1.40;1.00
37530;DHT22;23374;52.758;6.872;2024-01-15T08:00:39;1.40;12.70
37530;DHT22;23374;52.758;6.872;2024-01-15T08:02:59;1.40;50.20
37530;DHT22;23374;52.758;6.872;2024-01-15T08:05:20;1.40;60.80
37530;DHT22;23374;52.758;6.872;2024-01-15T08:07:41;1.40;42.80
37530;DHT22;23374;52.758;6.872;2024-01-15T08:10:02;1.40;17.70
37530;DHT22;23374;52.758;6.872;2024-01-15T08:12:22;1.30;9.70
37530;DHT22;23374;52.758;6.872;2024-01-15T08:14:42;1.30;27.70
37530;DHT22;23374;52.758;6.872;2024-01-15T08:17:03;1.30;16.00
37530;DHT22;23374;52.758;6.872;2024-01-15T08:19:24;1.20;99.40
37530;DHT22;23374;52.758;6.872;2024-01-15T08:21:44;1.20;73.10
37530;DHT22;23374;52.758;6.872;2024-01-15T08:24:06;1.20;99.90
37530;DHT22;23374;52.758;6.872;2024-01-15T08:26:26;1.20;99.90
37530;DHT22;23374;52.758;6.872;2024-01-15T08:28:47;1.20;99.90
37530;DHT22;23374;52.758;6.872;2024-01-15T08:31:08;1.20;99.90
37530;DHT22;23374;52.758;6.872;2024-01-15T08:33:29;1.20;99.90
37530;DHT22;23374;52.758;6.872;2024-01-15T08:35:49;1.20;99.90
37530;DHT22;23374;52.758;6.872;2024-01-15T08:38:09;1.20;99.90
37530;DHT22;23374;52.758;6.872;2024-01-15T08:40:30;1.20;99.90
37530;DHT22;23374;52.758;6.872;2024-01-15T08:42:51;1.20;99.90
37530;DHT22;23374;52.758;6.872;2024-01-15T08:45:12;1.20;99.90
37530;DHT22;23374;52.758;6.872;2024-01-15T08:47:32;1.20;99.90
37530;DHT22;23374;52.758;6.872;2024-01-15T08:49:53;1.30;99.90
37530;DHT22;23374;52.758;6.872;2024-01-15T08:52:14;1.30;99.90
37530;DHT22;23374;52.758;6.872;2024-01-15T08:54:35;1.30;99.90
37530;DHT22;23374;52.758;6.872;2024-01-15T08:56:55;1.40;99.90
37530;DHT22;23374;52.758;6.872;2024-01-15T08:59:15;1.40;99.90
37530;DHT22;23374;52.758;6.872;2024-01-15T09:01:38;1.40;99.90
37530;DHT22;23374;52.758;6.872;2024-01-15T09:03:59;1.40;99.90
37530;DHT22;23374;52.758;6.872;2024-01-15T09:06:19;1.40;77.40
37530;DHT22;23374;52.758;6.872;2024-01-15T09:08:40;1.50;99.90
37530;DHT22;23374;52.758;6.872;2024-01-15T09:11:01;1.50;99.90
37530;DHT22;23374;52.758;6.872;2024-01-15T09:13:23;1.50;99.90
37530;DHT22;23374;52.758;6.872;2024-01-15T09:15:43;1.60;68.00
37530;DHT22;23374;52.758;6.872;2024-01-15T09:18:04;1.60;95.10
37530;DHT22;23374;52.758;6.872;2024-01-15T09:20:25;1.60;1.00
37530;DHT22;23374;52.758;6.872;2024-01-15T09:22:47;1.70;1.00
37530;DHT22;23374;52.758;6.872;2024-01-15T09:25:10;1.70;1.00
37530;DHT22;23374;52.758;6.872;2024-01-15T09:27:31;1.70;1.00
37530;DHT22;23374;52.758;6.872;2024-01-15T09:29:53;1.70;1.00
37530;DHT22;23374;52.758;6.872;2024-01-15T09:32:13;1.80;1.00
37530;DHT22;23374;52.758;6.872;2024-01-15T09:34:34;1.80;1.00
37530;DHT22;23374;52.758;6.872;2024-01-15T09:36:55;1.80;99.90
37530;DHT22;23374;52.758;6.872;2024-01-15T09:39:15;1.80;99.90
37530;DHT22;23374;52.758;6.872;2024-01-15T09:41:36;1.90;99.90
37530;DHT22;23374;52.758;6.872;2024-01-15T09:43:57;2.00;99.90
37530;DHT22;23374;52.758;6.872;2024-01-15T09:46:17;2.00;99.90
37530;DHT22;23374;52.758;6.872;2024-01-15T09:48:37;2.10;99.90
37530;DHT22;23374;52.758;6.872;2024-01-15T09:50:59;2.10;1.00
37530;DHT22;23374;52.758;6.872;2024-01-15T09:53:21;2.10;1.00
37530;DHT22;23374;52.758;6.872;2024-01-15T09:55:41;2.00;1.00
37530;DHT22;23374;52.758;6.872;2024-01-15T09:58:02;2.10;1.00
37530;DHT22;23374;52.758;6.872;2024-01-15T10:00:23;2.10;1.00
37530;DHT22;23374;52.758;6.872;2024-01-15T10:02:44;2.10;1.00
37530;DHT22;23374;52.758;6.872;2024-01-15T10:05:05;2.00;1.00
37530;DHT22;23374;52.758;6.872;2024-01-15T10:07:26;2.00;1.00
37530;DHT22;23374;52.758;6.872;2024-01-15T10:09:46;2.00;1.00
37530;DHT22;23374;52.758;6.872;2024-01-15T10:12:07;2.00;1.00
37530;DHT22;23374;52.758;6.872;2024-01-15T10:14:30;2.10;1.00
37530;DHT22;23374;52.758;6.872;2024-01-15T10:16:50;2.10;1.00
37530;DHT22;23374;52.758;6.872;2024-01-15T10:19:10;2.10;1.00
37530;DHT22;23374;52.758;6.872;2024-01-15T10:21:35;2.10;1.00
37530;DHT22;23374;52.758;6.872;2024-01-15T10:23:55;2.20;1.00
37530;DHT22;23374;52.758;6.872;2024-01-15T10:26:15;2.20;1.00
37530;DHT22;23374;52.758;6.872;2024-01-15T10:28:35;2.30;1.00
37530;DHT22;23374;52.758;6.872;2024-01-15T10:31:00;2.30;1.00
37530;DHT22;23374;52.758;6.872;2024-01-15T10:33:23;2.30;1.00
37530;DHT22;23374;52.758;6.872;2024-01-15T10:35:47;2.40;1.00
37530;DHT22;23374;52.758;6.872;2024-01-15T10:38:07;2.30;1.00
37530;DHT22;23374;52.758;6.872;2024-01-15T10:40:28;2.30;99.90
37530;DHT22;23374;52.758;6.872;2024-01-15T10:42:49;2.30;99.90
37530;DHT22;23374;52.758;6.872;2024-01-15T10:45:09;2.30;99.90
37530;DHT22;23374;52.758;6.872;2024-01-15T10:47:30;2.30;1.00
37530;DHT22;23374;52.758;6.872;2024-01-15T10:49:51;2.30;1.00
37530;DHT22;23374;52.758;6.872;2024-01-15T10:52:11;2.30;1.00
37530;DHT22;23374;52.758;6.872;2024-01-15T10:54:32;2.30;1.00
37530;DHT22;23374;52.758;6.872;2024-01-15T10:56:53;2.30;1.00
37530;DHT22;23374;52.758;6.872;2024-01-15T10:59:14;2.30;1.00
37530;DHT22;23374;52.758;6.872;2024-01-15T11:01:34;2.30;99.90
37530;DHT22;23374;52.758;6.872;2024-01-15T11:03:55;2.30;99.90
37530;DHT22;23374;52.758;6.872;2024-01-15T11:06:18;2.40;99.90
37530;DHT22;23374;52.758;6.872;2024-01-15T11:08:40;2.40;99.90
37530;DHT22;23374;52.758;6.872;2024-01-15T11:11:03;2.40;99.90
37530;DHT22;23374;52.758;6.872;2024-01-15T11:15:24;2.40;99.90
37530;DHT22;23374;52.758;6.872;2024-01-15T11:18:00;2.40;99.90
37530;DHT22;23374;52.758;6.872;2024-01-15T11:20:20;2.40;1.00
37530;DHT22;23374;52.758;6.872;2024-01-15T11:22:48;2.40;1.00
37530;DHT22;23374;52.758;6.872;2024-01-15T11:25:17;2.40;1.00
37530;DHT22;23374;52.758;6.872;2024-01-15T11:27:56;2.40;1.00
37530;DHT22;23374;52.758;6.872;2024-01-15T11:30:16;2.50;99.90
37530;DHT22;23374;52.758;6.872;2024-01-15T11:32:38;2.50;1.00
37530;DHT22;23374;52.758;6.872;2024-01-15T11:35:02;2.60;99.90
37530;DHT22;23374;52.758;6.872;2024-01-15T11:37:22;2.60;1.00
37530;DHT22;23374;52.758;6.872;2024-01-15T11:39:43;2.70;1.00
37530;DHT22;23374;52.758;6.872;2024-01-15T11:42:04;2.70;99.90
37530;DHT22;23374;52.758;6.872;2024-01-15T11:44:26;2.70;99.90
37530;DHT22;23374;52.758;6.872;2024-01-15T11:47:01;2.80;99.90
37530;DHT22;23374;52.758;6.872;2024-01-15T11:50:27;2.80;99.90
37530;DHT22;23374;52.758;6.872;2024-01-15T11:53:00;2.80;99.90
37530;DHT22;23374;52.758;6.872;2024-01-15T11:55:34;2.80;1.00
37530;DHT22;23374;52.758;6.872;2024-01-15T11:57:57;2.80;1.00
37530;DHT22;23374;52.758;6.872;2024-01-15T12:00:22;2.90;1.00
37530;DHT22;23374;52.758;6.872;2024-01-15T12:02:45;2.90;1.00
37530;DHT22;23374;52.758;6.872;2024-01-15T12:05:07;2.90;99.90
37530;DHT22;23374;52.758;6.872;2024-01-15T12:07:27;2.90;99.90
37530;DHT22;23374;52.758;6.872;2024-01-15T12:09:48;2.90;99.90
37530;DHT22;23374;52.758;6.872;2024-01-15T12:12:09;2.80;10.80
37530;DHT22;23374;52.758;6.872;2024-01-15T12:14:33;2.70;83.30
37530;DHT22;23374;52.758;6.872;2024-01-15T12:16:55;2.60;99.90
37530;DHT22;23374;52.758;6.872;2024-01-15T12:19:16;2.50;99.90
37530;DHT22;23374;52.758;6.872;2024-01-15T12:21:39;2.50;99.90
37530;DHT22;23374;52.758;6.872;2024-01-15T12:23:59;2.40;1.00
37530;DHT22;23374;52.758;6.872;2024-01-15T12:26:20;2.30;1.00
37530;DHT22;23374;52.758;6.872;2024-01-15T12:28:40;2.30;1.00
37530;DHT22;23374;52.758;6.872;2024-01-15T12:31:01;2.20;1.00
37530;DHT22;23374;52.758;6.872;2024-01-15T12:33:25;2.10;1.00
37530;DHT22;23374;52.758;6.872;2024-01-15T12:35:46;2.00;1.00
37530;DHT22;23374;52.758;6.872;2024-01-15T12:38:06;1.90;1.00
37530;DHT22;23374;52.758;6.872;2024-01-15T12:40:26;1.80;1.00
37530;DHT22;23374;52.758;6.872;2024-01-15T12:42:46;1.70;99.90
37530;DHT22;23374;52.758;6.872;2024-01-15T12:45:09;1.70;99.90
37530;DHT22;23374;52.758;6.872;2024-01-15T12:47:31;1.60;1.00
37530;DHT22;23374;52.758;6.872;2024-01-15T12:49:52;1.60;1.00
37530;DHT22;23374;52.758;6.872;2024-01-15T12:52:15;1.60;1.00
37530;DHT22;23374;52.758;6.872;2024-01-15T12:54:36;1.60;1.00
37530;DHT22;23374;52.758;6.872;2024-01-15T12:56:56;1.60;1.00
37530;DHT22;23374;52.758;6.872;2024-01-15T12:59:17;1.70;1.00
37530;DHT22;23374;52.758;6.872;2024-01-15T13:01:38;1.70;1.00
37530;DHT22;23374;52.758;6.872;2024-01-15T13:03:59;1.70;1.00
37530;DHT22;23374;52.758;6.872;2024-01-15T13:06:20;1.70;1.00
37530;DHT22;23374;52.758;6.872;2024-01-15T13:08:41;1.70;1.00
37530;DHT22;23374;52.758;6.872;2024-01-15T13:11:02;1.80;1.00
37530;DHT22;23374;52.758;6.872;2024-01-15T13:13:23;1.80;1.00
37530;DHT22;23374;52.758;6.872;2024-01-15T13:15:44;1.80;99.90
37530;DHT22;23374;52.758;6.872;2024-01-15T13:18:06;1.80;99.90
37530;DHT22;23374;52.758;6.872;2024-01-15T13:20:27;1.80;99.90
37530;DHT22;23374;52.758;6.872;2024-01-15T13:22:47;1.80;99.90
37530;DHT22;23374;52.758;6.872;2024-01-15T13:25:08;1.80;99.90
37530;DHT22;23374;52.758;6.872;2024-01-15T13:27:28;1.80;99.90
37530;DHT22;23374;52.758;6.872;2024-01-15T13:29:49;1.80;99.90
37530;DHT22;23374;52.758;6.872;2024-01-15T13:32:11;1.80;99.90
37530;DHT22;23374;52.758;6.872;2024-01-15T13:34:36;1.80;38.20
37530;DHT22;23374;52.758;6.872;2024-01-15T13:36:57;1.80;70.00
37530;DHT22;23374;52.758;6.872;2024-01-15T13:39:17;1.80;17.50
37530;DHT22;23374;52.758;6.872;2024-01-15T13:41:40;1.80;34.60
37530;DHT22;23374;52.758;6.872;2024-01-15T13:44:00;1.80;1.00
37530;DHT22;23374;52.758;6.872;2024-01-15T13:46:23;1.90;1.00
37530;DHT22;23374;52.758;6.872;2024-01-15T13:48:44;1.90;1.00
37530;DHT22;23374;52.758;6.872;2024-01-15T13:51:05;2.00;99.90
37530;DHT22;23374;52.758;6.872;2024-01-15T13:53:25;2.00;99.90
37530;DHT22;23374;52.758;6.872;2024-01-15T13:55:46;2.10;99.90
37530;DHT22;23374;52.758;6.872;2024-01-15T13:58:07;2.10;97.80
37530;DHT22;23374;52.758;6.872;2024-01-15T14:00:28;2.10;99.90
37530;DHT22;23374;52.758;6.872;2024-01-15T14:02:49;2.10;99.90
37530;DHT22;23374;52.758;6.872;2024-01-15T14:05:09;2.10;99.90
37530;DHT22;23374;52.758;6.872;2024-01-15T14:07:32;2.00;99.90
37530;DHT22;23374;52.758;6.872;2024-01-15T14:09:53;2.00;99.90
37530;DHT22;23374;52.758;6.872;2024-01-15T14:12:13;2.00;99.90
37530;DHT22;23374;52.758;6.872;2024-01-15T14:14:34;2.00;99.90
37530;DHT22;23374;52.758;6.872;2024-01-15T14:16:55;1.90;99.90
37530;DHT22;23374;52.758;6.872;2024-01-15T14:19:15;1.90;99.90
37530;DHT22;23374;52.758;6.872;2024-01-15T14:21:36;1.90;99.90
37530;DHT22;23374;52.758;6.872;2024-01-15T14:23:56;1.90;99.90
37530;DHT22;23374;52.758;6.872;2024-01-15T14:26:17;1.90;99.90
37530;DHT22;23374;52.758;6.872;2024-01-15T14:28:37;1.90;1.00
37530;DHT22;23374;52.758;6.872;2024-01-15T14:30:58;2.00;1.00
37530;DHT22;23374;52.758;6.872;2024-01-15T14:33:20;2.00;1.00
37530;DHT22;23374;52.758;6.872;2024-01-15T14:35:41;2.00;1.00
37530;DHT22;23374;52.758;6.872;2024-01-15T14:38:01;2.00;1.00
37530;DHT22;23374;52.758;6.872;2024-01-15T14:40:22;2.00;1.00
37530;DHT22;23374;52.758;6.872;2024-01-15T14:42:42;2.00;1.00
37530;DHT22;23374;52.758;6.872;2024-01-15T14:45:04;2.10;1.00
37530;DHT22;23374;52.758;6.872;2024-01-15T14:47:28;2.10;1.00
37530;DHT22;23374;52.758;6.872;2024-01-15T14:49:50;2.10;33.80
37530;DHT22;23374;52.758;6.872;2024-01-15T14:52:10;2.10;38.40
37530;DHT22;23374;52.758;6.872;2024-01-15T14:54:30;2.10;53.80
37530;DHT22;23374;52.758;6.872;2024-01-15T14:56:50;2.20;97.00
37530;DHT22;23374;52.758;6.872;2024-01-15T14:59:11;2.20;80.30
37530;DHT22;23374;52.758;6.872;2024-01-15T15:01:32;2.20;32.60
37530;DHT22;23374;52.758;6.872;2024-01-15T15:03:52;2.20;1.00
37530;DHT22;23374;52.758;6.872;2024-01-15T15:06:12;2.30;1.00
37530;DHT22;23374;52.758;6.872;2024-01-15T15:08:32;2.30;1.00
37530;DHT22;23374;52.758;6.872;2024-01-15T15:10:53;2.30;1.00
37530;DHT22;23374;52.758;6.872;2024-01-15T15:13:13;2.30;99.90